PWSweather.com
Personal Weather Stations
Station Observations

PoschiavoCH

Lat: 46.31962499999999, Lon: 10.066551000000004

Elevation: 3517

Station Type: WH 1080

http://www.meteoposchiavo.com

High Low Average
Temperature 79.0°F26.1°C 53.0°F11.7°C 61.4°F16.3°C
Dew Point 62.6°F17.0°C 50.1°F10.1°C 55.5°F13.1°C
Winds 3.5 mph 5.6 kmh Calm Calm Calm SECalm SE
Wind Gusts 5.8 mph9.3 kmh -- --
Humidity 99% 47% 83%
Pressure 26.61 in901.1 mb 26.47 in896.4 mb -
Precipitation 0.38 in9.7 mm - -
Hour Temp Dew Point Humidity Winds Wind Gusts Pressure Precip Precip Rate Daily Precip Total
12:00 AM 54.0°F12.2°C 53.7°F12.1°C 99% Calm Calm -- 26.57 in899.8 mb - 0.01 in0.3 mm 0.01 in0.3 mm
12:10 AM 54.0°F12.2°C 53.4°F11.9°C 98% Calm Calm -- 26.58 in900.1 mb - 0.00 in0.0 mm 0.01 in0.3 mm
12:15 AM 54.0°F12.2°C 53.4°F11.9°C 98% Calm Calm -- 26.58 in900.1 mb - 0.00 in0.0 mm 0.01 in0.3 mm
12:20 AM 54.0°F12.2°C 53.7°F12.1°C 99% Calm Calm -- 26.57 in899.8 mb - 0.00 in0.0 mm 0.01 in0.3 mm
12:25 AM 54.0°F12.2°C 53.7°F12.1°C 99% Calm Calm -- 26.57 in899.8 mb - 0.00 in0.0 mm 0.01 in0.3 mm
12:30 AM 54.0°F12.2°C 53.4°F11.9°C 98% Calm Calm -- 26.58 in900.1 mb - 0.00 in0.0 mm 0.01 in0.3 mm
12:35 AM 54.0°F12.2°C 53.4°F11.9°C 98% Calm Calm -- 26.58 in900.1 mb - 0.00 in0.0 mm 0.01 in0.3 mm
12:40 AM 54.0°F12.2°C 53.4°F11.9°C 98% Calm Calm -- 26.57 in899.8 mb - 0.00 in0.0 mm 0.01 in0.3 mm
12:45 AM 54.0°F12.2°C 53.4°F11.9°C 98% Calm Calm -- 26.58 in900.1 mb - 0.00 in0.0 mm 0.01 in0.3 mm
12:50 AM 54.0°F12.2°C 53.7°F12.1°C 99% Calm Calm -- 26.57 in899.8 mb - 0.00 in0.0 mm 0.01 in0.3 mm
12:55 AM 54.0°F12.2°C 53.7°F12.1°C 99% Calm Calm -- 26.57 in899.8 mb - 0.00 in0.0 mm 0.01 in0.3 mm
01:00 AM 54.0°F12.2°C 53.7°F12.1°C 99% Calm Calm -- 26.57 in899.8 mb - 0.00 in0.0 mm 0.01 in0.3 mm
01:10 AM 54.0°F12.2°C 53.4°F11.9°C 98% Calm Calm -- 26.57 in899.8 mb - 0.00 in0.0 mm 0.01 in0.3 mm
01:15 AM 54.0°F12.2°C 53.4°F11.9°C 98% Calm Calm -- 26.57 in899.8 mb - 0.00 in0.0 mm 0.01 in0.3 mm
01:20 AM 54.0°F12.2°C 53.4°F11.9°C 98% Calm Calm -- 26.57 in899.8 mb - 0.00 in0.0 mm 0.01 in0.3 mm
01:25 AM 54.0°F12.2°C 53.7°F12.1°C 99% Calm Calm -- 26.57 in899.8 mb - 0.00 in0.0 mm 0.01 in0.3 mm
01:30 AM 54.0°F12.2°C 53.7°F12.1°C 99% Calm Calm -- 26.57 in899.8 mb - 0.00 in0.0 mm 0.01 in0.3 mm
01:35 AM 54.0°F12.2°C 53.7°F12.1°C 99% Calm Calm -- 26.58 in900.1 mb - 0.00 in0.0 mm 0.01 in0.3 mm
01:40 AM 54.0°F12.2°C 53.7°F12.1°C 99% Calm Calm -- 26.57 in899.8 mb - 0.00 in0.0 mm 0.01 in0.3 mm
01:45 AM 55.0°F12.8°C 54.4°F12.4°C 98% Calm Calm -- 26.57 in899.8 mb - 0.00 in0.0 mm 0.01 in0.3 mm
01:50 AM 55.0°F12.8°C 54.4°F12.4°C 98% Calm Calm -- 26.56 in899.4 mb - 0.00 in0.0 mm 0.01 in0.3 mm
01:55 AM 55.0°F12.8°C 54.4°F12.4°C 98% Calm Calm -- 26.56 in899.4 mb - 0.00 in0.0 mm 0.01 in0.3 mm
02:00 AM 55.0°F12.8°C 54.4°F12.4°C 98% Calm Calm -- 26.56 in899.4 mb - 0.00 in0.0 mm 0.01 in0.3 mm
02:10 AM 55.0°F12.8°C 54.4°F12.4°C 98% Calm Calm -- 26.57 in899.8 mb - 0.00 in0.0 mm 0.01 in0.3 mm
02:15 AM 55.0°F12.8°C 54.4°F12.4°C 98% Calm Calm -- 26.56 in899.4 mb - 0.00 in0.0 mm 0.01 in0.3 mm
02:20 AM 55.0°F12.8°C 54.4°F12.4°C 98% Calm Calm -- 26.56 in899.4 mb - 0.00 in0.0 mm 0.01 in0.3 mm
02:25 AM 54.0°F12.2°C 53.4°F11.9°C 98% Calm Calm -- 26.57 in899.8 mb - 0.00 in0.0 mm 0.01 in0.3 mm
02:30 AM 54.0°F12.2°C 53.4°F11.9°C 98% Calm Calm -- 26.57 in899.8 mb - 0.00 in0.0 mm 0.01 in0.3 mm
02:35 AM 54.0°F12.2°C 53.4°F11.9°C 98% Calm Calm -- 26.56 in899.4 mb - 0.00 in0.0 mm 0.01 in0.3 mm
02:40 AM 55.0°F12.8°C 54.4°F12.4°C 98% Calm Calm -- 26.57 in899.8 mb - 0.00 in0.0 mm 0.01 in0.3 mm
02:45 AM 54.0°F12.2°C 53.4°F11.9°C 98% Calm Calm -- 26.56 in899.4 mb - 0.00 in0.0 mm 0.01 in0.3 mm
02:50 AM 54.0°F12.2°C 53.4°F11.9°C 98% Calm Calm -- 26.55 in899.1 mb - 0.00 in0.0 mm 0.01 in0.3 mm
02:55 AM 54.0°F12.2°C 53.4°F11.9°C 98% Calm Calm -- 26.56 in899.4 mb - 0.00 in0.0 mm 0.01 in0.3 mm
03:00 AM 54.0°F12.2°C 53.4°F11.9°C 98% Calm Calm -- 26.56 in899.4 mb - 0.00 in0.0 mm 0.01 in0.3 mm
03:10 AM 55.0°F12.8°C 54.2°F12.3°C 97% Calm Calm -- 26.55 in899.1 mb - 0.00 in0.0 mm 0.01 in0.3 mm
03:15 AM 55.0°F12.8°C 54.2°F12.3°C 97% Calm Calm -- 26.55 in899.1 mb - 0.00 in0.0 mm 0.01 in0.3 mm
03:20 AM 54.0°F12.2°C 53.4°F11.9°C 98% Calm Calm -- 26.55 in899.1 mb - 0.00 in0.0 mm 0.01 in0.3 mm
03:25 AM 54.0°F12.2°C 53.2°F11.8°C 97% Calm Calm -- 26.57 in899.8 mb - 0.00 in0.0 mm 0.01 in0.3 mm
03:30 AM 54.7°F12.6°C 53.9°F12.2°C 97% Calm Calm -- 26.56 in899.4 mb - 0.00 in0.0 mm 0.01 in0.3 mm
03:35 AM 55.0°F12.8°C 54.2°F12.3°C 97% Calm Calm -- 26.56 in899.4 mb - 0.00 in0.0 mm 0.01 in0.3 mm
03:40 AM 54.0°F12.2°C 53.2°F11.8°C 97% Calm Calm -- 26.57 in899.8 mb - 0.00 in0.0 mm 0.01 in0.3 mm
03:45 AM 54.0°F12.2°C 53.4°F11.9°C 98% Calm Calm -- 26.55 in899.1 mb - 0.00 in0.0 mm 0.01 in0.3 mm
03:50 AM 54.0°F12.2°C 53.2°F11.8°C 97% Calm Calm -- 26.56 in899.4 mb - 0.00 in0.0 mm 0.01 in0.3 mm
03:55 AM 54.0°F12.2°C 53.4°F11.9°C 98% Calm Calm -- 26.56 in899.4 mb - 0.00 in0.0 mm 0.01 in0.3 mm
04:00 AM 54.0°F12.2°C 53.4°F11.9°C 98% Calm Calm -- 26.56 in899.4 mb - 0.00 in0.0 mm 0.01 in0.3 mm
04:10 AM 54.0°F12.2°C 53.4°F11.9°C 98% Calm Calm -- 26.57 in899.8 mb - 0.00 in0.0 mm 0.01 in0.3 mm
04:15 AM 55.0°F12.8°C 54.2°F12.3°C 97% Calm Calm -- 26.56 in899.4 mb - 0.00 in0.0 mm 0.01 in0.3 mm
04:20 AM 54.0°F12.2°C 53.4°F11.9°C 98% Calm Calm -- 26.56 in899.4 mb - 0.00 in0.0 mm 0.01 in0.3 mm
04:25 AM 55.0°F12.8°C 54.4°F12.4°C 98% Calm Calm -- 26.56 in899.4 mb - 0.00 in0.0 mm 0.01 in0.3 mm
04:30 AM 55.0°F12.8°C 54.4°F12.4°C 98% Calm Calm -- 26.56 in899.4 mb - 0.00 in0.0 mm 0.01 in0.3 mm
04:35 AM 54.0°F12.2°C 53.4°F11.9°C 98% Calm Calm -- 26.56 in899.4 mb - 0.00 in0.0 mm 0.01 in0.3 mm
04:40 AM 55.0°F12.8°C 54.2°F12.3°C 97% Calm Calm -- 26.56 in899.4 mb - 0.00 in0.0 mm 0.01 in0.3 mm
04:45 AM 54.0°F12.2°C 53.4°F11.9°C 98% Calm Calm -- 26.56 in899.4 mb - 0.00 in0.0 mm 0.01 in0.3 mm
04:50 AM 54.0°F12.2°C 53.4°F11.9°C 98% Calm Calm -- 26.56 in899.4 mb - 0.00 in0.0 mm 0.01 in0.3 mm
04:55 AM 54.8°F12.7°C 54.2°F12.3°C 98% Calm Calm -- 26.57 in899.8 mb - 0.00 in0.0 mm 0.01 in0.3 mm
05:00 AM 55.0°F12.8°C 54.4°F12.4°C 98% Calm Calm -- 26.57 in899.8 mb - 0.00 in0.0 mm 0.01 in0.3 mm
05:10 AM 55.0°F12.8°C 54.4°F12.4°C 98% Calm Calm -- 26.56 in899.4 mb - 0.00 in0.0 mm 0.01 in0.3 mm
05:15 AM 55.0°F12.8°C 54.4°F12.4°C 98% Calm Calm -- 26.56 in899.4 mb - 0.00 in0.0 mm 0.01 in0.3 mm
05:20 AM 55.0°F12.8°C 54.2°F12.3°C 97% Calm Calm -- 26.55 in899.1 mb - 0.00 in0.0 mm 0.01 in0.3 mm
05:25 AM 55.0°F12.8°C 54.2°F12.3°C 97% Calm Calm -- 26.55 in899.1 mb - 0.00 in0.0 mm 0.01 in0.3 mm
05:30 AM 55.0°F12.8°C 54.4°F12.4°C 98% Calm Calm -- 26.56 in899.4 mb - 0.00 in0.0 mm 0.01 in0.3 mm
05:35 AM 55.0°F12.8°C 54.2°F12.3°C 97% Calm Calm -- 26.56 in899.4 mb - 0.00 in0.0 mm 0.01 in0.3 mm
05:40 AM 55.0°F12.8°C 53.9°F12.2°C 96% Calm Calm -- 26.56 in899.4 mb - 0.00 in0.0 mm 0.01 in0.3 mm
05:45 AM 56.0°F13.3°C 54.6°F12.6°C 95% Calm Calm -- 26.55 in899.1 mb - 0.00 in0.0 mm 0.01 in0.3 mm
05:50 AM 56.0°F13.3°C 54.9°F12.7°C 96% Calm Calm -- 26.55 in899.1 mb - 0.00 in0.0 mm 0.01 in0.3 mm
05:55 AM 56.0°F13.3°C 54.9°F12.7°C 96% Calm Calm -- 26.55 in899.1 mb - 0.00 in0.0 mm 0.01 in0.3 mm
06:00 AM 56.0°F13.3°C 54.6°F12.6°C 95% Calm Calm -- 26.56 in899.4 mb - 0.00 in0.0 mm 0.01 in0.3 mm
06:10 AM 56.0°F13.3°C 54.6°F12.6°C 95% Calm Calm -- 26.55 in899.1 mb - 0.00 in0.0 mm 0.01 in0.3 mm
06:15 AM 56.9°F13.8°C 55.7°F13.2°C 96% Calm Calm -- 26.55 in899.1 mb - 0.00 in0.0 mm 0.01 in0.3 mm
06:20 AM 57.0°F13.9°C 55.9°F13.3°C 96% Calm Calm -- 26.55 in899.1 mb - 0.00 in0.0 mm 0.01 in0.3 mm
06:25 AM 57.0°F13.9°C 55.9°F13.3°C 96% Calm Calm -- 26.55 in899.1 mb - 0.00 in0.0 mm 0.01 in0.3 mm
06:30 AM 57.0°F13.9°C 55.9°F13.3°C 96% Calm Calm -- 26.55 in899.1 mb - 0.00 in0.0 mm 0.01 in0.3 mm
06:35 AM 57.0°F13.9°C 56.2°F13.4°C 97% Calm Calm -- 26.55 in899.1 mb - 0.00 in0.0 mm 0.01 in0.3 mm
06:40 AM 58.0°F14.4°C 57.2°F14.0°C 97% Calm Calm -- 26.55 in899.1 mb - 0.00 in0.0 mm 0.01 in0.3 mm
06:45 AM 58.2°F14.6°C 57.3°F14.1°C 97% Calm Calm -- 26.55 in899.1 mb - 0.00 in0.0 mm 0.01 in0.3 mm
06:50 AM 59.0°F15.0°C 58.2°F14.6°C 97% Calm Calm -- 26.55 in899.1 mb - 0.00 in0.0 mm 0.01 in0.3 mm
06:55 AM 59.0°F15.0°C 57.9°F14.4°C 96% Calm Calm -- 26.55 in899.1 mb - 0.00 in0.0 mm 0.01 in0.3 mm
07:00 AM 59.0°F15.0°C 57.0°F13.9°C 93% Calm Calm -- 26.55 in899.1 mb - 0.00 in0.0 mm 0.01 in0.3 mm
07:10 AM 59.0°F15.0°C 57.0°F13.9°C 93% Calm Calm -- 26.55 in899.1 mb - 0.00 in0.0 mm 0.01 in0.3 mm
07:15 AM 59.0°F15.0°C 57.0°F13.9°C 93% Calm Calm -- 26.54 in898.7 mb - 0.00 in0.0 mm 0.01 in0.3 mm
07:20 AM 60.0°F15.6°C 57.4°F14.1°C 91% Calm Calm -- 26.54 in898.7 mb - 0.00 in0.0 mm 0.01 in0.3 mm
07:25 AM 60.0°F15.6°C 58.0°F14.4°C 93% Calm Calm -- 26.54 in898.7 mb - 0.00 in0.0 mm 0.01 in0.3 mm
07:30 AM 60.0°F15.6°C 57.1°F13.9°C 90% Calm Calm -- 26.55 in899.1 mb - 0.00 in0.0 mm 0.01 in0.3 mm
07:35 AM 60.7°F15.9°C 58.1°F14.5°C 91% Calm Calm -- 26.54 in898.7 mb - 0.00 in0.0 mm 0.01 in0.3 mm
07:40 AM 61.0°F16.1°C 58.4°F14.7°C 91% Calm Calm -- 26.54 in898.7 mb - 0.00 in0.0 mm 0.01 in0.3 mm
07:45 AM 63.0°F17.2°C 60.0°F15.6°C 90% Calm Calm -- 26.54 in898.7 mb - 0.00 in0.0 mm 0.01 in0.3 mm
07:50 AM 66.0°F18.9°C 58.6°F14.8°C 77% Calm Calm -- 26.53 in898.4 mb - 0.00 in0.0 mm 0.01 in0.3 mm
07:55 AM 69.0°F20.6°C 60.7°F15.9°C 75% Calm Calm -- 26.53 in898.4 mb - 0.00 in0.0 mm 0.01 in0.3 mm
08:00 AM 69.0°F20.6°C 60.0°F15.6°C 73% Calm Calm -- 26.53 in898.4 mb - 0.00 in0.0 mm 0.01 in0.3 mm
08:10 AM 67.0°F19.4°C 60.3°F15.7°C 79% Calm Calm -- 26.53 in898.4 mb - 0.00 in0.0 mm 0.01 in0.3 mm
08:15 AM 67.0°F19.4°C 60.3°F15.7°C 79% Calm Calm -- 26.53 in898.4 mb - 0.00 in0.0 mm 0.01 in0.3 mm
08:20 AM 65.0°F18.3°C 60.4°F15.8°C 85% Calm Calm -- 26.52 in898.1 mb - 0.00 in0.0 mm 0.01 in0.3 mm
08:25 AM 64.1°F17.8°C 59.4°F15.2°C 85% Calm Calm -- 26.53 in898.4 mb - 0.00 in0.0 mm 0.01 in0.3 mm
08:30 AM 64.0°F17.8°C 59.4°F15.2°C 85% Calm Calm -- 26.53 in898.4 mb - 0.00 in0.0 mm 0.01 in0.3 mm
08:35 AM 65.0°F18.3°C 60.7°F15.9°C 86% Calm Calm -- 26.53 in898.4 mb - 0.00 in0.0 mm 0.01 in0.3 mm
08:40 AM 65.0°F18.3°C 60.4°F15.8°C 85% Calm Calm -- 26.53 in898.4 mb - 0.00 in0.0 mm 0.01 in0.3 mm
08:45 AM 68.0°F20.0°C 59.8°F15.4°C 75% Calm Calm -- 26.53 in898.4 mb - 0.00 in0.0 mm 0.01 in0.3 mm
08:50 AM 71.0°F21.7°C 61.1°F16.2°C 71% Calm Calm -- 26.53 in898.4 mb - 0.00 in0.0 mm 0.01 in0.3 mm
08:55 AM 71.0°F21.7°C 61.1°F16.2°C 71% Calm Calm -- 26.53 in898.4 mb - 0.00 in0.0 mm 0.01 in0.3 mm
09:00 AM 71.0°F21.7°C 59.9°F15.5°C 68% Calm Calm -- 26.53 in898.4 mb - 0.00 in0.0 mm 0.01 in0.3 mm
09:10 AM 71.0°F21.7°C 61.1°F16.2°C 71% Calm Calm -- 26.52 in898.1 mb - 0.00 in0.0 mm 0.01 in0.3 mm
09:15 AM 69.0°F20.6°C 60.0°F15.6°C 73% Calm Calm -- 26.52 in898.1 mb - 0.00 in0.0 mm 0.01 in0.3 mm
09:20 AM 69.0°F20.6°C 59.2°F15.1°C 71% Calm Calm -- 26.52 in898.1 mb - 0.00 in0.0 mm 0.01 in0.3 mm
09:25 AM 69.0°F20.6°C 57.2°F14.0°C 66% Calm Calm -- 26.52 in898.1 mb - 0.00 in0.0 mm 0.01 in0.3 mm
09:30 AM 71.0°F21.7°C 57.3°F14.1°C 62% Calm Calm -- 26.52 in898.1 mb - 0.00 in0.0 mm 0.01 in0.3 mm
09:35 AM 71.0°F21.7°C 57.8°F14.3°C 63% Calm Calm 1.2 mph1.9 kmh 26.52 in898.1 mb - 0.00 in0.0 mm 0.01 in0.3 mm
09:40 AM 71.0°F21.7°C 54.5°F12.5°C 56% Calm Calm -- 26.52 in898.1 mb - 0.00 in0.0 mm 0.01 in0.3 mm
09:45 AM 71.8°F22.1°C 55.3°F12.9°C 56% Calm Calm 1.2 mph1.9 kmh 26.52 in898.1 mb - 0.00 in0.0 mm 0.01 in0.3 mm
09:50 AM 74.0°F23.3°C 56.8°F13.8°C 55% 1.2 mph NNE1.9 kmh NNE 1.2 mph1.9 kmh 26.52 in898.1 mb - 0.00 in0.0 mm 0.01 in0.3 mm
09:55 AM 73.0°F22.8°C 55.4°F13.0°C 54% Calm Calm 1.2 mph1.9 kmh 26.52 in898.1 mb - 0.00 in0.0 mm 0.01 in0.3 mm
10:00 AM 72.0°F22.2°C 55.4°F13.0°C 56% Calm Calm -- 26.52 in898.1 mb - 0.00 in0.0 mm 0.01 in0.3 mm
10:10 AM 72.2°F22.3°C 55.6°F13.1°C 56% Calm Calm -- 26.51 in897.7 mb - 0.00 in0.0 mm 0.01 in0.3 mm
10:15 AM 71.0°F21.7°C 55.5°F13.1°C 58% Calm Calm -- 26.52 in898.1 mb - 0.00 in0.0 mm 0.01 in0.3 mm
10:20 AM 69.0°F20.6°C 55.4°F13.0°C 62% Calm Calm -- 26.52 in898.1 mb - 0.00 in0.0 mm 0.01 in0.3 mm
10:25 AM 70.0°F21.1°C 54.5°F12.5°C 58% Calm Calm -- 26.51 in897.7 mb - 0.00 in0.0 mm 0.01 in0.3 mm
10:30 AM 74.0°F23.3°C 55.3°F12.9°C 52% 1.2 mph SW1.9 kmh SW 2.3 mph3.7 kmh 26.51 in897.7 mb - 0.00 in0.0 mm 0.01 in0.3 mm
10:35 AM 75.0°F23.9°C 55.6°F13.1°C 51% Calm Calm 2.3 mph3.7 kmh 26.52 in898.1 mb - 0.00 in0.0 mm 0.01 in0.3 mm
10:40 AM 76.0°F24.4°C 55.5°F13.1°C 49% Calm Calm 1.2 mph1.9 kmh 26.52 in898.1 mb - 0.00 in0.0 mm 0.01 in0.3 mm
10:45 AM 78.0°F25.6°C 57.9°F14.4°C 50% Calm Calm -- 26.51 in897.7 mb - 0.00 in0.0 mm 0.01 in0.3 mm
10:50 AM 77.0°F25.0°C 55.8°F13.2°C 48% Calm Calm 1.2 mph1.9 kmh 26.52 in898.1 mb - 0.00 in0.0 mm 0.01 in0.3 mm
10:55 AM 79.0°F26.1°C 57.0°F13.9°C 47% Calm Calm -- 26.51 in897.7 mb - 0.00 in0.0 mm 0.01 in0.3 mm
11:00 AM 79.0°F26.1°C 57.0°F13.9°C 47% Calm Calm -- 26.51 in897.7 mb - 0.00 in0.0 mm 0.01 in0.3 mm
11:10 AM 76.0°F24.4°C 57.6°F14.2°C 53% Calm Calm -- 26.50 in897.4 mb - 0.00 in0.0 mm 0.01 in0.3 mm
11:15 AM 74.0°F23.3°C 56.8°F13.8°C 55% Calm Calm -- 26.50 in897.4 mb - 0.00 in0.0 mm 0.01 in0.3 mm
11:20 AM 73.8°F23.2°C 56.6°F13.7°C 55% Calm Calm -- 26.50 in897.4 mb - 0.00 in0.0 mm 0.01 in0.3 mm
11:25 AM 73.0°F22.8°C 56.4°F13.6°C 56% Calm Calm -- 26.50 in897.4 mb - 0.00 in0.0 mm 0.01 in0.3 mm
11:30 AM 73.0°F22.8°C 59.2°F15.1°C 62% Calm Calm -- 26.51 in897.7 mb - 0.00 in0.0 mm 0.01 in0.3 mm
11:35 AM 72.0°F22.2°C 57.8°F14.3°C 61% Calm Calm -- 26.51 in897.7 mb - 0.00 in0.0 mm 0.01 in0.3 mm
11:40 AM 71.6°F22.0°C 57.9°F14.4°C 62% Calm Calm 1.2 mph1.9 kmh 26.51 in897.7 mb - 0.00 in0.0 mm 0.01 in0.3 mm
11:45 AM 71.0°F21.7°C 57.8°F14.3°C 63% 1.2 mph N1.9 kmh N 1.2 mph1.9 kmh 26.51 in897.7 mb - 0.00 in0.0 mm 0.01 in0.3 mm
11:50 AM 72.0°F22.2°C 59.2°F15.1°C 64% Calm Calm -- 26.51 in897.7 mb - 0.00 in0.0 mm 0.01 in0.3 mm
11:55 AM 74.0°F23.3°C 60.2°F15.7°C 62% Calm Calm 1.2 mph1.9 kmh 26.50 in897.4 mb - 0.00 in0.0 mm 0.01 in0.3 mm
12:00 PM 74.0°F23.3°C 59.7°F15.4°C 61% 2.3 mph E3.7 kmh E 3.5 mph5.6 kmh 26.50 in897.4 mb - 0.00 in0.0 mm 0.01 in0.3 mm
12:10 PM 72.0°F22.2°C 58.3°F14.6°C 62% 2.3 mph WNW3.7 kmh WNW 2.3 mph3.7 kmh 26.50 in897.4 mb - 0.00 in0.0 mm 0.01 in0.3 mm
12:15 PM 70.0°F21.1°C 57.7°F14.3°C 65% 2.3 mph NNE3.7 kmh NNE 2.3 mph3.7 kmh 26.50 in897.4 mb - 0.00 in0.0 mm 0.01 in0.3 mm
12:20 PM 70.0°F21.1°C 56.8°F13.8°C 63% 2.3 mph NW3.7 kmh NW 3.5 mph5.6 kmh 26.50 in897.4 mb - 0.00 in0.0 mm 0.01 in0.3 mm
12:25 PM 70.0°F21.1°C 57.7°F14.3°C 65% 3.5 mph S5.6 kmh S 5.8 mph9.3 kmh 26.50 in897.4 mb - 0.00 in0.0 mm 0.01 in0.3 mm
12:30 PM 70.0°F21.1°C 57.7°F14.3°C 65% 1.2 mph SE1.9 kmh SE 5.8 mph9.3 kmh 26.50 in897.4 mb - 0.00 in0.0 mm 0.01 in0.3 mm
12:35 PM 70.0°F21.1°C 57.7°F14.3°C 65% 1.2 mph NNE1.9 kmh NNE 1.2 mph1.9 kmh 26.50 in897.4 mb - 0.00 in0.0 mm 0.01 in0.3 mm
12:40 PM 73.0°F22.8°C 58.3°F14.6°C 60% 2.3 mph N3.7 kmh N 3.5 mph5.6 kmh 26.50 in897.4 mb - 0.00 in0.0 mm 0.01 in0.3 mm
12:45 PM 74.0°F23.3°C 57.8°F14.3°C 57% 1.2 mph ESE1.9 kmh ESE 2.3 mph3.7 kmh 26.49 in897.1 mb - 0.00 in0.0 mm 0.01 in0.3 mm
12:50 PM 77.0°F25.0°C 58.0°F14.4°C 52% 1.2 mph ENE1.9 kmh ENE 1.2 mph1.9 kmh 26.49 in897.1 mb - 0.00 in0.0 mm 0.01 in0.3 mm
12:55 PM 77.0°F25.0°C 59.6°F15.3°C 55% 2.3 mph NW3.7 kmh NW 3.5 mph5.6 kmh 26.49 in897.1 mb - 0.00 in0.0 mm 0.01 in0.3 mm
01:00 PM 77.0°F25.0°C 60.1°F15.6°C 56% 2.3 mph NW3.7 kmh NW 3.5 mph5.6 kmh 26.49 in897.1 mb - 0.00 in0.0 mm 0.01 in0.3 mm
01:10 PM 73.0°F22.8°C 57.3°F14.1°C 58% 2.3 mph WNW3.7 kmh WNW 2.3 mph3.7 kmh 26.49 in897.1 mb - 0.00 in0.0 mm 0.01 in0.3 mm
01:15 PM 75.0°F23.9°C 57.7°F14.3°C 55% 3.5 mph W5.6 kmh W 3.5 mph5.6 kmh 26.49 in897.1 mb - 0.00 in0.0 mm 0.01 in0.3 mm
01:20 PM 72.6°F22.6°C 58.4°F14.7°C 61% 1.2 mph WSW1.9 kmh WSW 3.5 mph5.6 kmh 26.49 in897.1 mb - 0.00 in0.0 mm 0.01 in0.3 mm
01:25 PM 72.0°F22.2°C 58.7°F14.8°C 63% 1.2 mph SW1.9 kmh SW 1.2 mph1.9 kmh 26.49 in897.1 mb - 0.00 in0.0 mm 0.01 in0.3 mm
01:30 PM 71.0°F21.7°C 56.4°F13.6°C 60% Calm Calm 1.2 mph1.9 kmh 26.48 in896.7 mb - 0.00 in0.0 mm 0.01 in0.3 mm
01:35 PM 73.0°F22.8°C 56.4°F13.6°C 56% 1.2 mph NNE1.9 kmh NNE 2.3 mph3.7 kmh 26.49 in897.1 mb - 0.00 in0.0 mm 0.01 in0.3 mm
01:40 PM 74.0°F23.3°C 54.7°F12.6°C 51% 1.2 mph E1.9 kmh E 1.2 mph1.9 kmh 26.48 in896.7 mb - 0.00 in0.0 mm 0.01 in0.3 mm
01:45 PM 74.0°F23.3°C 55.3°F12.9°C 52% 1.2 mph N1.9 kmh N 2.3 mph3.7 kmh 26.49 in897.1 mb - 0.00 in0.0 mm 0.01 in0.3 mm
01:50 PM 74.0°F23.3°C 55.3°F12.9°C 52% 1.2 mph N1.9 kmh N 2.3 mph3.7 kmh 26.49 in897.1 mb - 0.00 in0.0 mm 0.01 in0.3 mm
01:55 PM 73.0°F22.8°C 55.4°F13.0°C 54% 1.2 mph NE1.9 kmh NE 2.3 mph3.7 kmh 26.48 in896.7 mb - 0.00 in0.0 mm 0.01 in0.3 mm
02:00 PM 72.0°F22.2°C 55.4°F13.0°C 56% Calm Calm -- 26.48 in896.7 mb - 0.00 in0.0 mm 0.01 in0.3 mm
02:10 PM 72.9°F22.7°C 56.3°F13.5°C 56% Calm Calm 1.2 mph1.9 kmh 26.48 in896.7 mb - 0.00 in0.0 mm 0.01 in0.3 mm
02:15 PM 73.0°F22.8°C 56.4°F13.6°C 56% Calm Calm 1.2 mph1.9 kmh 26.48 in896.7 mb - 0.00 in0.0 mm 0.01 in0.3 mm
02:20 PM 74.0°F23.3°C 55.3°F12.9°C 52% 1.2 mph E1.9 kmh E 2.3 mph3.7 kmh 26.48 in896.7 mb - 0.00 in0.0 mm 0.01 in0.3 mm
02:25 PM 77.0°F25.0°C 55.8°F13.2°C 48% 1.2 mph NW1.9 kmh NW 1.2 mph1.9 kmh 26.48 in896.7 mb - 0.00 in0.0 mm 0.01 in0.3 mm
02:30 PM 73.0°F22.8°C 55.4°F13.0°C 54% Calm Calm -- 26.49 in897.1 mb - 0.00 in0.0 mm 0.01 in0.3 mm
02:35 PM 73.2°F22.9°C 55.6°F13.1°C 54% Calm Calm 1.2 mph1.9 kmh 26.49 in897.1 mb - 0.00 in0.0 mm 0.01 in0.3 mm
02:40 PM 74.0°F23.3°C 55.8°F13.2°C 53% Calm Calm 1.2 mph1.9 kmh 26.48 in896.7 mb - 0.00 in0.0 mm 0.01 in0.3 mm
02:45 PM 74.0°F23.3°C 56.8°F13.8°C 55% Calm Calm 1.2 mph1.9 kmh 26.48 in896.7 mb - 0.00 in0.0 mm 0.01 in0.3 mm
02:50 PM 73.0°F22.8°C 57.3°F14.1°C 58% Calm Calm -- 26.47 in896.4 mb - 0.00 in0.0 mm 0.01 in0.3 mm
02:55 PM 72.9°F22.7°C 57.7°F14.3°C 59% Calm Calm 1.2 mph1.9 kmh 26.47 in896.4 mb - 0.00 in0.0 mm 0.01 in0.3 mm
03:00 PM 72.0°F22.2°C 60.0°F15.6°C 66% Calm Calm 1.2 mph1.9 kmh 26.47 in896.4 mb - 0.00 in0.0 mm 0.01 in0.3 mm
03:10 PM 71.0°F21.7°C 59.5°F15.3°C 67% Calm Calm -- 26.47 in896.4 mb - 0.00 in0.0 mm 0.01 in0.3 mm
03:15 PM 70.5°F21.4°C 59.4°F15.2°C 68% Calm Calm -- 26.47 in896.4 mb - 0.00 in0.0 mm 0.01 in0.3 mm
03:20 PM 70.0°F21.1°C 59.8°F15.4°C 70% Calm Calm -- 26.47 in896.4 mb - 0.00 in0.0 mm 0.01 in0.3 mm
03:25 PM 69.0°F20.6°C 62.6°F17.0°C 80% Calm Calm -- 26.48 in896.7 mb - 0.00 in0.0 mm 0.01 in0.3 mm
03:30 PM 68.0°F20.0°C 58.6°F14.8°C 72% 2.3 mph NW3.7 kmh NW 3.5 mph5.6 kmh 26.49 in897.1 mb - 0.00 in0.0 mm 0.01 in0.3 mm
03:35 PM 67.5°F19.7°C 56.5°F13.6°C 68% 2.3 mph NNE3.7 kmh NNE 3.5 mph5.6 kmh 26.50 in897.4 mb - 0.01 in0.3 mm 0.02 in0.5 mm
03:40 PM 67.0°F19.4°C 56.5°F13.6°C 69% 3.5 mph NE5.6 kmh NE 3.5 mph5.6 kmh 26.51 in897.7 mb - 0.01 in0.3 mm 0.02 in0.5 mm
03:45 PM 63.0°F17.2°C 53.4°F11.9°C 71% 1.2 mph NW1.9 kmh NW 2.3 mph3.7 kmh 26.54 in898.7 mb - 0.03 in0.8 mm 0.04 in1.0 mm
03:50 PM 59.0°F15.0°C 54.5°F12.5°C 85% 1.2 mph NE1.9 kmh NE 1.2 mph1.9 kmh 26.53 in898.4 mb - 0.14 in3.6 mm 0.15 in3.8 mm
03:55 PM 58.4°F14.7°C 56.4°F13.6°C 93% Calm Calm 1.2 mph1.9 kmh 26.52 in898.1 mb - 0.15 in3.8 mm 0.16 in4.1 mm
04:00 PM 58.0°F14.4°C 56.0°F13.3°C 93% Calm Calm 1.2 mph1.9 kmh 26.52 in898.1 mb - 0.15 in3.8 mm 0.16 in4.1 mm
04:10 PM 60.4°F15.8°C 58.4°F14.7°C 93% Calm Calm 1.2 mph1.9 kmh 26.53 in898.4 mb - 0.15 in3.8 mm 0.16 in4.1 mm
04:15 PM 60.0°F15.6°C 58.0°F14.4°C 93% Calm Calm 1.2 mph1.9 kmh 26.53 in898.4 mb - 0.15 in3.8 mm 0.16 in4.1 mm
04:20 PM 60.0°F15.6°C 57.4°F14.1°C 91% Calm Calm -- 26.53 in898.4 mb - 0.15 in3.8 mm 0.16 in4.1 mm
04:25 PM 60.0°F15.6°C 58.3°F14.6°C 94% Calm Calm -- 26.52 in898.1 mb - 0.15 in3.8 mm 0.16 in4.1 mm
04:30 PM 60.0°F15.6°C 58.3°F14.6°C 94% Calm Calm -- 26.53 in898.4 mb - 0.15 in3.8 mm 0.16 in4.1 mm
04:35 PM 60.0°F15.6°C 58.0°F14.4°C 93% Calm Calm -- 26.53 in898.4 mb - 0.15 in3.8 mm 0.16 in4.1 mm
04:40 PM 60.0°F15.6°C 58.3°F14.6°C 94% Calm Calm -- 26.53 in898.4 mb - 0.14 in3.6 mm 0.16 in4.1 mm
04:45 PM 60.0°F15.6°C 57.4°F14.1°C 91% Calm Calm -- 26.55 in899.1 mb - 0.12 in3.0 mm 0.16 in4.1 mm
04:50 PM 60.0°F15.6°C 57.4°F14.1°C 91% Calm Calm -- 26.54 in898.7 mb - 0.12 in3.0 mm 0.16 in4.1 mm
04:55 PM 60.0°F15.6°C 57.4°F14.1°C 91% Calm Calm -- 26.54 in898.7 mb - 0.01 in0.3 mm 0.16 in4.1 mm
05:00 PM 60.0°F15.6°C 57.1°F13.9°C 90% Calm Calm -- 26.55 in899.1 mb - 0.00 in0.0 mm 0.16 in4.1 mm
05:10 PM 59.0°F15.0°C 56.7°F13.7°C 92% Calm Calm -- 26.54 in898.7 mb - 0.00 in0.0 mm 0.16 in4.1 mm
05:15 PM 59.0°F15.0°C 56.7°F13.7°C 92% Calm Calm -- 26.55 in899.1 mb - 0.00 in0.0 mm 0.16 in4.1 mm
05:20 PM 59.0°F15.0°C 57.0°F13.9°C 93% Calm Calm -- 26.55 in899.1 mb - 0.00 in0.0 mm 0.16 in4.1 mm
05:25 PM 60.0°F15.6°C 57.1°F13.9°C 90% Calm Calm -- 26.55 in899.1 mb - 0.00 in0.0 mm 0.16 in4.1 mm
05:30 PM 59.0°F15.0°C 56.7°F13.7°C 92% Calm Calm -- 26.55 in899.1 mb - 0.01 in0.3 mm 0.17 in4.3 mm
05:35 PM 59.9°F15.5°C 56.9°F13.8°C 90% Calm Calm -- 26.55 in899.1 mb - 0.01 in0.3 mm 0.17 in4.3 mm
05:40 PM 59.6°F15.3°C 57.3°F14.1°C 92% Calm Calm -- 26.55 in899.1 mb - 0.02 in0.5 mm 0.18 in4.6 mm
05:45 PM 59.0°F15.0°C 57.6°F14.2°C 95% Calm Calm -- 26.55 in899.1 mb - 0.02 in0.5 mm 0.18 in4.6 mm
05:50 PM 59.0°F15.0°C 57.3°F14.1°C 94% Calm Calm -- 26.55 in899.1 mb - 0.02 in0.5 mm 0.18 in4.6 mm
05:55 PM 59.0°F15.0°C 57.6°F14.2°C 95% Calm Calm -- 26.55 in899.1 mb - 0.02 in0.5 mm 0.18 in4.6 mm
06:00 PM 59.0°F15.0°C 57.3°F14.1°C 94% Calm Calm -- 26.55 in899.1 mb - 0.02 in0.5 mm 0.18 in4.6 mm
06:10 PM 58.0°F14.4°C 56.3°F13.5°C 94% Calm Calm -- 26.55 in899.1 mb - 0.02 in0.5 mm 0.18 in4.6 mm
06:15 PM 58.0°F14.4°C 56.3°F13.5°C 94% Calm Calm -- 26.55 in899.1 mb - 0.02 in0.5 mm 0.18 in4.6 mm
06:20 PM 59.0°F15.0°C 57.3°F14.1°C 94% Calm Calm -- 26.54 in898.7 mb - 0.02 in0.5 mm 0.18 in4.6 mm
06:25 PM 59.0°F15.0°C 57.6°F14.2°C 95% Calm Calm -- 26.55 in899.1 mb - 0.06 in1.5 mm 0.22 in5.6 mm
06:30 PM 59.0°F15.0°C 57.6°F14.2°C 95% Calm Calm -- 26.55 in899.1 mb - 0.05 in1.3 mm 0.22 in5.6 mm
06:35 PM 59.0°F15.0°C 57.3°F14.1°C 94% Calm Calm -- 26.55 in899.1 mb - 0.05 in1.3 mm 0.22 in5.6 mm
06:40 PM 59.0°F15.0°C 57.3°F14.1°C 94% Calm Calm -- 26.55 in899.1 mb - 0.05 in1.3 mm 0.22 in5.6 mm
06:45 PM 59.0°F15.0°C 57.3°F14.1°C 94% Calm Calm -- 26.55 in899.1 mb - 0.04 in1.0 mm 0.22 in5.6 mm
06:50 PM 59.0°F15.0°C 57.3°F14.1°C 94% Calm Calm -- 26.55 in899.1 mb - 0.04 in1.0 mm 0.22 in5.6 mm
06:55 PM 59.0°F15.0°C 56.1°F13.4°C 90% Calm Calm -- 26.54 in898.7 mb - 0.04 in1.0 mm 0.22 in5.6 mm
07:00 PM 59.0°F15.0°C 56.1°F13.4°C 90% Calm Calm -- 26.55 in899.1 mb - 0.04 in1.0 mm 0.22 in5.6 mm
07:10 PM 59.0°F15.0°C 57.0°F13.9°C 93% Calm Calm -- 26.55 in899.1 mb - 0.04 in1.0 mm 0.22 in5.6 mm
07:15 PM 59.0°F15.0°C 56.7°F13.7°C 92% Calm Calm -- 26.55 in899.1 mb - 0.04 in1.0 mm 0.22 in5.6 mm
07:20 PM 59.0°F15.0°C 56.7°F13.7°C 92% Calm Calm -- 26.55 in899.1 mb - 0.04 in1.0 mm 0.22 in5.6 mm
07:25 PM 59.0°F15.0°C 56.7°F13.7°C 92% Calm Calm -- 26.55 in899.1 mb - 0.04 in1.0 mm 0.22 in5.6 mm
07:30 PM 58.0°F14.4°C 55.1°F12.8°C 90% Calm Calm -- 26.54 in898.7 mb - 0.00 in0.0 mm 0.22 in5.6 mm
07:35 PM 58.0°F14.4°C 55.1°F12.8°C 90% Calm Calm -- 26.55 in899.1 mb - 0.00 in0.0 mm 0.22 in5.6 mm
07:40 PM 74.0°F23.3°C 56.8°F13.8°C 55% Calm Calm 1.2 mph1.9 kmh 26.48 in896.7 mb - 0.00 in0.0 mm 0.22 in5.6 mm
07:45 PM 57.0°F13.9°C 54.7°F12.6°C 92% Calm Calm -- 26.55 in899.1 mb - 0.16 in4.1 mm 0.38 in9.7 mm
07:50 PM 57.0°F13.9°C 54.4°F12.4°C 91% Calm Calm -- 26.56 in899.4 mb - 0.16 in4.1 mm 0.38 in9.7 mm
07:55 PM 56.0°F13.3°C 53.1°F11.7°C 90% Calm Calm -- 26.56 in899.4 mb - 0.16 in4.1 mm 0.38 in9.7 mm
08:00 PM 56.0°F13.3°C 53.7°F12.1°C 92% Calm Calm -- 26.57 in899.8 mb - 0.16 in4.1 mm 0.38 in9.7 mm
08:10 PM 56.0°F13.3°C 53.7°F12.1°C 92% Calm Calm -- 26.57 in899.8 mb - 0.16 in4.1 mm 0.38 in9.7 mm
08:15 PM 56.0°F13.3°C 53.7°F12.1°C 92% Calm Calm -- 26.57 in899.8 mb - 0.16 in4.1 mm 0.38 in9.7 mm
08:20 PM 55.0°F12.8°C 52.1°F11.2°C 90% Calm Calm -- 26.57 in899.8 mb - 0.16 in4.1 mm 0.38 in9.7 mm
08:25 PM 56.0°F13.3°C 52.5°F11.4°C 88% Calm Calm -- 26.57 in899.8 mb - 0.16 in4.1 mm 0.38 in9.7 mm
08:30 PM 55.0°F12.8°C 52.4°F11.3°C 91% Calm Calm -- 26.57 in899.8 mb - 0.16 in4.1 mm 0.38 in9.7 mm
08:35 PM 55.0°F12.8°C 52.4°F11.3°C 91% Calm Calm -- 26.58 in900.1 mb - 0.16 in4.1 mm 0.38 in9.7 mm
08:40 PM 55.0°F12.8°C 52.1°F11.2°C 90% Calm Calm -- 26.58 in900.1 mb - 0.16 in4.1 mm 0.38 in9.7 mm
08:45 PM 55.0°F12.8°C 52.4°F11.3°C 91% Calm Calm -- 26.58 in900.1 mb - 0.00 in0.0 mm 0.38 in9.7 mm
08:50 PM 55.0°F12.8°C 52.7°F11.5°C 92% Calm Calm -- 26.59 in900.4 mb - 0.00 in0.0 mm 0.38 in9.7 mm
08:55 PM 55.0°F12.8°C 52.7°F11.5°C 92% Calm Calm -- 26.60 in900.8 mb - 0.00 in0.0 mm 0.38 in9.7 mm
09:00 PM 55.0°F12.8°C 52.4°F11.3°C 91% Calm Calm -- 26.60 in900.8 mb - 0.00 in0.0 mm 0.38 in9.7 mm
09:10 PM 54.0°F12.2°C 51.4°F10.8°C 91% Calm Calm -- 26.59 in900.4 mb - 0.00 in0.0 mm 0.38 in9.7 mm
09:15 PM 55.0°F12.8°C 52.4°F11.3°C 91% Calm Calm -- 26.60 in900.8 mb - 0.00 in0.0 mm 0.38 in9.7 mm
09:20 PM 54.0°F12.2°C 51.7°F10.9°C 92% Calm Calm -- 26.60 in900.8 mb - 0.00 in0.0 mm 0.38 in9.7 mm
09:25 PM 54.0°F12.2°C 51.7°F10.9°C 92% Calm Calm -- 26.60 in900.8 mb - 0.00 in0.0 mm 0.38 in9.7 mm
09:30 PM 54.0°F12.2°C 51.4°F10.8°C 91% Calm Calm -- 26.60 in900.8 mb - 0.00 in0.0 mm 0.38 in9.7 mm
09:35 PM 54.0°F12.2°C 50.8°F10.4°C 89% Calm Calm -- 26.59 in900.4 mb - 0.00 in0.0 mm 0.38 in9.7 mm
09:40 PM 54.3°F12.4°C 50.8°F10.4°C 88% Calm Calm -- 26.59 in900.4 mb - 0.00 in0.0 mm 0.38 in9.7 mm
09:45 PM 55.0°F12.8°C 51.5°F10.8°C 88% Calm Calm -- 26.59 in900.4 mb - 0.00 in0.0 mm 0.38 in9.7 mm
09:50 PM 55.0°F12.8°C 52.1°F11.2°C 90% Calm Calm -- 26.59 in900.4 mb - 0.00 in0.0 mm 0.38 in9.7 mm
09:55 PM 55.0°F12.8°C 52.1°F11.2°C 90% Calm Calm -- 26.57 in899.8 mb - 0.00 in0.0 mm 0.38 in9.7 mm
10:00 PM 54.0°F12.2°C 50.8°F10.4°C 89% Calm Calm -- 26.59 in900.4 mb - 0.00 in0.0 mm 0.38 in9.7 mm
10:10 PM 54.0°F12.2°C 51.7°F10.9°C 92% Calm Calm -- 26.60 in900.8 mb - 0.00 in0.0 mm 0.38 in9.7 mm
10:15 PM 54.0°F12.2°C 50.5°F10.3°C 88% Calm Calm -- 26.60 in900.8 mb - 0.00 in0.0 mm 0.38 in9.7 mm
10:20 PM 54.0°F12.2°C 51.1°F10.6°C 90% Calm Calm -- 26.60 in900.8 mb - 0.00 in0.0 mm 0.38 in9.7 mm
10:25 PM 54.0°F12.2°C 50.8°F10.4°C 89% Calm Calm -- 26.60 in900.8 mb - 0.00 in0.0 mm 0.38 in9.7 mm
10:30 PM 54.0°F12.2°C 50.5°F10.3°C 88% Calm Calm -- 26.60 in900.8 mb - 0.00 in0.0 mm 0.38 in9.7 mm
10:35 PM 54.0°F12.2°C 51.4°F10.8°C 91% Calm Calm -- 26.60 in900.8 mb - 0.00 in0.0 mm 0.38 in9.7 mm
10:40 PM 54.0°F12.2°C 51.1°F10.6°C 90% Calm Calm -- 26.61 in901.1 mb - 0.00 in0.0 mm 0.38 in9.7 mm
10:45 PM 54.0°F12.2°C 51.4°F10.8°C 91% Calm Calm -- 26.61 in901.1 mb - 0.00 in0.0 mm 0.38 in9.7 mm
10:50 PM 54.0°F12.2°C 51.1°F10.6°C 90% Calm Calm -- 26.60 in900.8 mb - 0.00 in0.0 mm 0.38 in9.7 mm
10:55 PM 54.0°F12.2°C 51.7°F10.9°C 92% Calm Calm -- 26.61 in901.1 mb - 0.00 in0.0 mm 0.38 in9.7 mm
11:00 PM 54.0°F12.2°C 51.4°F10.8°C 91% Calm Calm -- 26.61 in901.1 mb - 0.00 in0.0 mm 4.26 in108.2 mm
11:10 PM 55.0°F12.8°C 51.5°F10.8°C 88% Calm Calm -- 26.61 in901.1 mb - 0.00 in0.0 mm 4.26 in108.2 mm
11:15 PM 55.0°F12.8°C 51.8°F11.0°C 89% Calm Calm -- 26.61 in901.1 mb - 0.00 in0.0 mm 4.26 in108.2 mm
11:20 PM 54.0°F12.2°C 51.1°F10.6°C 90% Calm Calm -- 26.61 in901.1 mb - 0.00 in0.0 mm 4.26 in108.2 mm
11:25 PM 54.0°F12.2°C 51.1°F10.6°C 90% Calm Calm -- 26.61 in901.1 mb - 0.00 in0.0 mm 4.26 in108.2 mm
11:30 PM 54.0°F12.2°C 51.1°F10.6°C 90% Calm Calm -- 26.61 in901.1 mb - 0.00 in0.0 mm 4.26 in108.2 mm
11:35 PM 54.0°F12.2°C 51.4°F10.8°C 91% Calm Calm -- 26.61 in901.1 mb - 0.00 in0.0 mm 4.26 in108.2 mm
11:40 PM 53.0°F11.7°C 50.1°F10.1°C 90% Calm Calm -- 26.60 in900.8 mb - 0.00 in0.0 mm 4.26 in108.2 mm
11:45 PM 53.0°F11.7°C 50.4°F10.2°C 91% Calm Calm -- 26.61 in901.1 mb - 0.00 in0.0 mm 4.26 in108.2 mm
11:50 PM 53.0°F11.7°C 50.4°F10.2°C 91% Calm Calm -- 26.60 in900.8 mb - 0.00 in0.0 mm 4.26 in108.2 mm
11:55 PM 53.0°F11.7°C 50.4°F10.2°C 91% Calm Calm -- 26.60 in900.8 mb - 0.00 in0.0 mm 4.26 in108.2 mm